sensor_id;sensor_type;location;lat;lon;timestamp;P1;durP1;ratioP1;P2;durP2;ratioP2
21034;SDS011;10676;50.848;3.272;2023-07-24T00:00:41;20.65;;;19.10;;
21034;SDS011;10676;50.848;3.272;2023-07-24T00:03:06;19.50;;;18.30;;
21034;SDS011;10676;50.848;3.272;2023-07-24T00:05:32;22.65;;;21.17;;
21034;SDS011;10676;50.848;3.272;2023-07-24T00:07:57;22.58;;;20.90;;
21034;SDS011;10676;50.848;3.272;2023-07-24T00:10:24;22.45;;;21.08;;
21034;SDS011;10676;50.848;3.272;2023-07-24T00:12:50;20.05;;;18.80;;
21034;SDS011;10676;50.848;3.272;2023-07-24T00:15:15;22.83;;;21.42;;
21034;SDS011;10676;50.848;3.272;2023-07-24T00:17:41;21.80;;;20.38;;
21034;SDS011;10676;50.848;3.272;2023-07-24T00:20:07;20.77;;;19.42;;
21034;SDS011;10676;50.848;3.272;2023-07-24T00:22:33;20.13;;;18.40;;
21034;SDS011;10676;50.848;3.272;2023-07-24T00:24:58;20.70;;;19.42;;
21034;SDS011;10676;50.848;3.272;2023-07-24T00:27:24;21.40;;;19.95;;
21034;SDS011;10676;50.848;3.272;2023-07-24T00:29:50;20.27;;;19.00;;
21034;SDS011;10676;50.848;3.272;2023-07-24T00:32:15;21.75;;;20.10;;
21034;SDS011;10676;50.848;3.272;2023-07-24T00:34:41;22.20;;;20.73;;
21034;SDS011;10676;50.848;3.272;2023-07-24T00:37:07;20.92;;;19.42;;
21034;SDS011;10676;50.848;3.272;2023-07-24T00:39:32;22.75;;;21.35;;
21034;SDS011;10676;50.848;3.272;2023-07-24T00:41:58;21.50;;;20.00;;
21034;SDS011;10676;50.848;3.272;2023-07-24T00:44:24;23.13;;;21.52;;
21034;SDS011;10676;50.848;3.272;2023-07-24T00:46:49;22.30;;;21.02;;
21034;SDS011;10676;50.848;3.272;2023-07-24T00:49:15;22.85;;;21.27;;
21034;SDS011;10676;50.848;3.272;2023-07-24T00:51:41;21.00;;;19.55;;
21034;SDS011;10676;50.848;3.272;2023-07-24T00:54:09;21.65;;;20.25;;
21034;SDS011;10676;50.848;3.272;2023-07-24T00:56:36;22.60;;;20.90;;
21034;SDS011;10676;50.848;3.272;2023-07-24T00:59:02;21.85;;;20.45;;
21034;SDS011;10676;50.848;3.272;2023-07-24T01:01:28;21.40;;;19.70;;
21034;SDS011;10676;50.848;3.272;2023-07-24T01:03:54;19.70;;;18.50;;
21034;SDS011;10676;50.848;3.272;2023-07-24T01:06:23;19.80;;;18.55;;
21034;SDS011;10676;50.848;3.272;2023-07-24T01:08:49;20.77;;;19.27;;
21034;SDS011;10676;50.848;3.272;2023-07-24T01:11:24;20.23;;;18.80;;
21034;SDS011;10676;50.848;3.272;2023-07-24T01:14:17;20.42;;;18.92;;
21034;SDS011;10676;50.848;3.272;2023-07-24T01:16:41;19.38;;;17.88;;
21034;SDS011;10676;50.848;3.272;2023-07-24T01:19:28;21.30;;;20.00;;
21034;SDS011;10676;50.848;3.272;2023-07-24T01:22:09;20.27;;;18.98;;
21034;SDS011;10676;50.848;3.272;2023-07-24T01:24:37;18.95;;;17.65;;
21034;SDS011;10676;50.848;3.272;2023-07-24T01:27:20;19.48;;;18.17;;
21034;SDS011;10676;50.848;3.272;2023-07-24T01:29:48;20.33;;;18.92;;
21034;SDS011;10676;50.848;3.272;2023-07-24T01:32:14;21.08;;;19.58;;
21034;SDS011;10676;50.848;3.272;2023-07-24T01:34:40;20.33;;;19.13;;
21034;SDS011;10676;50.848;3.272;2023-07-24T01:37:06;20.77;;;19.30;;
21034;SDS011;10676;50.848;3.272;2023-07-24T01:39:32;19.25;;;17.85;;
21034;SDS011;10676;50.848;3.272;2023-07-24T01:41:59;18.75;;;17.45;;
21034;SDS011;10676;50.848;3.272;2023-07-24T01:44:25;18.70;;;17.42;;
21034;SDS011;10676;50.848;3.272;2023-07-24T01:46:50;17.85;;;16.70;;
21034;SDS011;10676;50.848;3.272;2023-07-24T01:49:16;19.35;;;18.05;;
21034;SDS011;10676;50.848;3.272;2023-07-24T01:51:42;19.77;;;18.38;;
21034;SDS011;10676;50.848;3.272;2023-07-24T01:54:07;19.23;;;17.77;;
21034;SDS011;10676;50.848;3.272;2023-07-24T01:56:35;19.73;;;18.40;;
21034;SDS011;10676;50.848;3.272;2023-07-24T01:59:02;20.35;;;18.70;;
21034;SDS011;10676;50.848;3.272;2023-07-24T02:01:28;19.45;;;18.25;;
21034;SDS011;10676;50.848;3.272;2023-07-24T02:03:53;19.38;;;18.17;;
21034;SDS011;10676;50.848;3.272;2023-07-24T02:06:19;20.55;;;19.15;;
21034;SDS011;10676;50.848;3.272;2023-07-24T02:08:44;20.08;;;18.75;;
21034;SDS011;10676;50.848;3.272;2023-07-24T02:11:14;19.60;;;18.40;;
21034;SDS011;10676;50.848;3.272;2023-07-24T02:13:43;20.73;;;19.23;;
21034;SDS011;10676;50.848;3.272;2023-07-24T02:16:09;20.13;;;18.77;;
21034;SDS011;10676;50.848;3.272;2023-07-24T02:18:36;18.30;;;16.80;;
21034;SDS011;10676;50.848;3.272;2023-07-24T02:21:03;19.45;;;18.15;;
21034;SDS011;10676;50.848;3.272;2023-07-24T02:23:28;18.55;;;17.35;;
21034;SDS011;10676;50.848;3.272;2023-07-24T02:25:54;19.52;;;18.00;;
21034;SDS011;10676;50.848;3.272;2023-07-24T02:28:20;19.33;;;17.73;;
21034;SDS011;10676;50.848;3.272;2023-07-24T02:30:49;19.65;;;18.23;;
21034;SDS011;10676;50.848;3.272;2023-07-24T02:33:16;19.85;;;18.13;;
21034;SDS011;10676;50.848;3.272;2023-07-24T02:35:42;19.23;;;17.98;;
21034;SDS011;10676;50.848;3.272;2023-07-24T02:38:08;19.75;;;18.30;;
21034;SDS011;10676;50.848;3.272;2023-07-24T02:40:35;20.17;;;18.67;;
21034;SDS011;10676;50.848;3.272;2023-07-24T02:43:01;19.70;;;18.02;;
21034;SDS011;10676;50.848;3.272;2023-07-24T02:45:27;19.60;;;18.10;;
21034;SDS011;10676;50.848;3.272;2023-07-24T02:47:52;18.83;;;17.23;;
21034;SDS011;10676;50.848;3.272;2023-07-24T02:50:18;18.75;;;17.45;;
21034;SDS011;10676;50.848;3.272;2023-07-24T02:52:43;18.77;;;17.48;;
21034;SDS011;10676;50.848;3.272;2023-07-24T02:55:09;17.65;;;16.40;;
21034;SDS011;10676;50.848;3.272;2023-07-24T02:57:35;17.45;;;16.33;;
21034;SDS011;10676;50.848;3.272;2023-07-24T03:00:00;18.77;;;17.48;;
21034;SDS011;10676;50.848;3.272;2023-07-24T03:02:26;19.58;;;17.98;;
21034;SDS011;10676;50.848;3.272;2023-07-24T03:04:52;20.23;;;18.83;;
21034;SDS011;10676;50.848;3.272;2023-07-24T03:07:17;19.77;;;18.15;;
21034;SDS011;10676;50.848;3.272;2023-07-24T03:09:43;21.10;;;19.50;;
21034;SDS011;10676;50.848;3.272;2023-07-24T03:12:09;20.65;;;19.25;;
21034;SDS011;10676;50.848;3.272;2023-07-24T03:14:36;20.98;;;19.50;;
21034;SDS011;10676;50.848;3.272;2023-07-24T03:17:01;20.40;;;19.05;;
21034;SDS011;10676;50.848;3.272;2023-07-24T03:19:27;19.45;;;18.10;;
21034;SDS011;10676;50.848;3.272;2023-07-24T03:21:53;19.90;;;18.60;;
21034;SDS011;10676;50.848;3.272;2023-07-24T03:24:18;21.50;;;17.98;;
21034;SDS011;10676;50.848;3.272;2023-07-24T03:26:44;19.98;;;18.60;;
21034;SDS011;10676;50.848;3.272;2023-07-24T03:29:10;18.88;;;17.40;;
21034;SDS011;10676;50.848;3.272;2023-07-24T03:31:35;19.15;;;17.85;;
21034;SDS011;10676;50.848;3.272;2023-07-24T03:34:01;19.83;;;18.08;;
21034;SDS011;10676;50.848;3.272;2023-07-24T03:36:27;18.63;;;17.10;;
21034;SDS011;10676;50.848;3.272;2023-07-24T03:38:52;16.77;;;15.52;;
21034;SDS011;10676;50.848;3.272;2023-07-24T03:41:18;17.83;;;16.55;;
21034;SDS011;10676;50.848;3.272;2023-07-24T03:43:44;16.80;;;15.60;;
21034;SDS011;10676;50.848;3.272;2023-07-24T03:46:09;15.73;;;14.70;;
21034;SDS011;10676;50.848;3.272;2023-07-24T03:48:35;16.52;;;15.23;;
21034;SDS011;10676;50.848;3.272;2023-07-24T03:51:01;15.27;;;14.05;;
21034;SDS011;10676;50.848;3.272;2023-07-24T03:53:27;15.23;;;14.23;;
21034;SDS011;10676;50.848;3.272;2023-07-24T03:55:53;16.20;;;14.68;;
21034;SDS011;10676;50.848;3.272;2023-07-24T03:58:19;16.70;;;15.32;;
21034;SDS011;10676;50.848;3.272;2023-07-24T04:00:45;16.90;;;15.38;;
21034;SDS011;10676;50.848;3.272;2023-07-24T04:03:11;16.35;;;15.15;;
21034;SDS011;10676;50.848;3.272;2023-07-24T04:05:37;16.13;;;14.63;;
21034;SDS011;10676;50.848;3.272;2023-07-24T04:08:03;15.57;;;14.40;;
21034;SDS011;10676;50.848;3.272;2023-07-24T04:10:29;15.95;;;14.55;;
21034;SDS011;10676;50.848;3.272;2023-07-24T04:12:55;16.70;;;15.43;;
21034;SDS011;10676;50.848;3.272;2023-07-24T04:15:22;16.67;;;15.38;;
21034;SDS011;10676;50.848;3.272;2023-07-24T04:17:48;15.93;;;14.73;;
21034;SDS011;10676;50.848;3.272;2023-07-24T04:20:14;14.82;;;13.63;;
21034;SDS011;10676;50.848;3.272;2023-07-24T04:22:39;14.75;;;13.50;;
21034;SDS011;10676;50.848;3.272;2023-07-24T04:25:05;14.85;;;13.65;;
21034;SDS011;10676;50.848;3.272;2023-07-24T04:27:31;14.73;;;13.63;;
21034;SDS011;10676;50.848;3.272;2023-07-24T04:29:57;14.05;;;12.75;;
21034;SDS011;10676;50.848;3.272;2023-07-24T04:32:22;14.00;;;12.77;;
21034;SDS011;10676;50.848;3.272;2023-07-24T04:34:48;12.75;;;11.60;;
21034;SDS011;10676;50.848;3.272;2023-07-24T04:37:14;15.00;;;12.30;;
21034;SDS011;10676;50.848;3.272;2023-07-24T04:39:39;13.63;;;12.20;;
21034;SDS011;10676;50.848;3.272;2023-07-24T04:42:05;15.40;;;12.10;;
21034;SDS011;10676;50.848;3.272;2023-07-24T04:44:31;14.77;;;12.07;;
21034;SDS011;10676;50.848;3.272;2023-07-24T04:46:57;13.55;;;12.27;;
21034;SDS011;10676;50.848;3.272;2023-07-24T04:49:23;13.23;;;12.00;;
21034;SDS011;10676;50.848;3.272;2023-07-24T04:51:49;13.82;;;12.38;;
21034;SDS011;10676;50.848;3.272;2023-07-24T04:54:16;13.85;;;12.23;;
21034;SDS011;10676;50.848;3.272;2023-07-24T04:56:42;13.18;;;11.88;;
21034;SDS011;10676;50.848;3.272;2023-07-24T04:59:08;13.40;;;12.20;;
21034;SDS011;10676;50.848;3.272;2023-07-24T05:01:34;14.38;;;13.07;;
21034;SDS011;10676;50.848;3.272;2023-07-24T05:03:59;14.48;;;12.98;;
21034;SDS011;10676;50.848;3.272;2023-07-24T05:06:26;13.43;;;12.18;;
21034;SDS011;10676;50.848;3.272;2023-07-24T05:08:52;12.30;;;11.02;;
21034;SDS011;10676;50.848;3.272;2023-07-24T05:11:18;13.73;;;12.32;;
21034;SDS011;10676;50.848;3.272;2023-07-24T05:13:44;14.30;;;12.35;;
21034;SDS011;10676;50.848;3.272;2023-07-24T05:16:09;13.70;;;12.27;;
21034;SDS011;10676;50.848;3.272;2023-07-24T05:18:35;13.35;;;12.05;;
21034;SDS011;10676;50.848;3.272;2023-07-24T05:21:01;13.15;;;11.93;;
21034;SDS011;10676;50.848;3.272;2023-07-24T05:23:26;14.35;;;12.80;;
21034;SDS011;10676;50.848;3.272;2023-07-24T05:25:59;14.27;;;12.82;;
21034;SDS011;10676;50.848;3.272;2023-07-24T05:28:29;13.10;;;11.77;;
21034;SDS011;10676;50.848;3.272;2023-07-24T05:30:55;14.13;;;12.73;;
21034;SDS011;10676;50.848;3.272;2023-07-24T05:33:24;13.55;;;12.15;;
21034;SDS011;10676;50.848;3.272;2023-07-24T05:35:50;12.18;;;11.18;;
21034;SDS011;10676;50.848;3.272;2023-07-24T05:38:15;11.98;;;10.85;;
21034;SDS011;10676;50.848;3.272;2023-07-24T05:40:41;11.75;;;10.55;;
21034;SDS011;10676;50.848;3.272;2023-07-24T05:43:07;11.85;;;10.65;;
21034;SDS011;10676;50.848;3.272;2023-07-24T05:45:32;10.45;;;9.35;;
21034;SDS011;10676;50.848;3.272;2023-07-24T05:47:58;11.93;;;8.98;;
21034;SDS011;10676;50.848;3.272;2023-07-24T05:50:24;9.43;;;8.43;;
21034;SDS011;10676;50.848;3.272;2023-07-24T05:52:49;9.77;;;7.38;;
21034;SDS011;10676;50.848;3.272;2023-07-24T05:55:15;10.70;;;7.55;;
21034;SDS011;10676;50.848;3.272;2023-07-24T05:57:40;11.38;;;7.15;;
21034;SDS011;10676;50.848;3.272;2023-07-24T06:00:06;12.93;;;6.60;;
21034;SDS011;10676;50.848;3.272;2023-07-24T06:02:32;9.10;;;6.35;;
21034;SDS011;10676;50.848;3.272;2023-07-24T06:04:58;8.02;;;5.50;;
21034;SDS011;10676;50.848;3.272;2023-07-24T06:07:23;10.27;;;5.35;;
21034;SDS011;10676;50.848;3.272;2023-07-24T06:09:49;6.55;;;5.85;;
21034;SDS011;10676;50.848;3.272;2023-07-24T06:12:15;11.77;;;6.93;;
21034;SDS011;10676;50.848;3.272;2023-07-24T06:14:41;10.27;;;7.00;;
21034;SDS011;10676;50.848;3.272;2023-07-24T06:17:06;9.15;;;7.18;;
21034;SDS011;10676;50.848;3.272;2023-07-24T06:19:32;10.07;;;7.70;;
21034;SDS011;10676;50.848;3.272;2023-07-24T06:21:58;8.73;;;7.75;;
21034;SDS011;10676;50.848;3.272;2023-07-24T06:24:23;8.98;;;8.05;;
21034;SDS011;10676;50.848;3.272;2023-07-24T06:26:49;8.02;;;7.32;;
21034;SDS011;10676;50.848;3.272;2023-07-24T06:29:15;8.40;;;7.70;;
21034;SDS011;10676;50.848;3.272;2023-07-24T06:31:43;7.35;;;6.72;;
21034;SDS011;10676;50.848;3.272;2023-07-24T06:34:08;7.57;;;6.88;;
21034;SDS011;10676;50.848;3.272;2023-07-24T06:36:34;7.22;;;6.40;;
21034;SDS011;10676;50.848;3.272;2023-07-24T06:39:00;7.05;;;5.90;;
21034;SDS011;10676;50.848;3.272;2023-07-24T06:41:25;7.10;;;6.43;;
21034;SDS011;10676;50.848;3.272;2023-07-24T06:43:51;7.43;;;6.82;;
21034;SDS011;10676;50.848;3.272;2023-07-24T06:46:17;8.10;;;7.40;;
21034;SDS011;10676;50.848;3.272;2023-07-24T06:48:42;7.78;;;7.07;;
21034;SDS011;10676;50.848;3.272;2023-07-24T06:51:08;8.05;;;6.93;;
21034;SDS011;10676;50.848;3.272;2023-07-24T06:53:34;7.97;;;7.28;;
21034;SDS011;10676;50.848;3.272;2023-07-24T06:55:59;7.47;;;6.88;;
21034;SDS011;10676;50.848;3.272;2023-07-24T06:58:25;7.95;;;6.75;;
21034;SDS011;10676;50.848;3.272;2023-07-24T07:00:51;7.70;;;6.95;;
21034;SDS011;10676;50.848;3.272;2023-07-24T07:03:16;7.40;;;6.38;;
21034;SDS011;10676;50.848;3.272;2023-07-24T07:05:42;6.13;;;5.30;;
21034;SDS011;10676;50.848;3.272;2023-07-24T07:08:07;5.65;;;4.80;;
21034;SDS011;10676;50.848;3.272;2023-07-24T07:10:33;5.10;;;4.60;;
21034;SDS011;10676;50.848;3.272;2023-07-24T07:12:59;6.82;;;4.35;;
21034;SDS011;10676;50.848;3.272;2023-07-24T07:15:24;5.93;;;4.22;;
21034;SDS011;10676;50.848;3.272;2023-07-24T07:17:50;6.53;;;3.75;;
21034;SDS011;10676;50.848;3.272;2023-07-24T07:20:16;5.78;;;4.20;;
21034;SDS011;10676;50.848;3.272;2023-07-24T07:22:41;3.85;;;3.22;;
21034;SDS011;10676;50.848;3.272;2023-07-24T07:25:07;5.15;;;3.72;;
21034;SDS011;10676;50.848;3.272;2023-07-24T07:27:33;4.30;;;3.47;;
21034;SDS011;10676;50.848;3.272;2023-07-24T07:29:59;5.00;;;3.50;;
21034;SDS011;10676;50.848;3.272;2023-07-24T07:32:24;3.83;;;3.22;;
21034;SDS011;10676;50.848;3.272;2023-07-24T07:34:51;6.40;;;3.22;;
21034;SDS011;10676;50.848;3.272;2023-07-24T07:37:17;6.25;;;3.00;;
21034;SDS011;10676;50.848;3.272;2023-07-24T07:39:42;5.15;;;3.42;;
21034;SDS011;10676;50.848;3.272;2023-07-24T07:42:08;4.70;;;3.42;;
21034;SDS011;10676;50.848;3.272;2023-07-24T07:44:33;3.95;;;2.60;;
21034;SDS011;10676;50.848;3.272;2023-07-24T07:46:59;6.20;;;3.15;;
21034;SDS011;10676;50.848;3.272;2023-07-24T07:49:25;7.25;;;3.20;;
21034;SDS011;10676;50.848;3.272;2023-07-24T07:51:50;5.65;;;3.35;;
21034;SDS011;10676;50.848;3.272;2023-07-24T07:54:16;3.63;;;2.80;;
21034;SDS011;10676;50.848;3.272;2023-07-24T07:56:41;4.90;;;2.70;;
21034;SDS011;10676;50.848;3.272;2023-07-24T07:59:07;6.82;;;2.75;;
21034;SDS011;10676;50.848;3.272;2023-07-24T08:01:33;4.80;;;3.03;;
21034;SDS011;10676;50.848;3.272;2023-07-24T08:04:00;4.20;;;2.70;;
21034;SDS011;10676;50.848;3.272;2023-07-24T08:06:26;4.78;;;2.70;;
21034;SDS011;10676;50.848;3.272;2023-07-24T08:08:52;4.43;;;2.15;;
21034;SDS011;10676;50.848;3.272;2023-07-24T08:11:17;3.35;;;2.33;;
21034;SDS011;10676;50.848;3.272;2023-07-24T08:13:43;5.00;;;2.53;;
21034;SDS011;10676;50.848;3.272;2023-07-24T08:16:12;4.53;;;2.15;;
21034;SDS011;10676;50.848;3.272;2023-07-24T08:18:44;3.17;;;2.25;;
21034;SDS011;10676;50.848;3.272;2023-07-24T08:21:11;5.07;;;2.22;;
21034;SDS011;10676;50.848;3.272;2023-07-24T08:23:38;5.78;;;2.17;;
21034;SDS011;10676;50.848;3.272;2023-07-24T08:26:04;2.47;;;1.92;;
21034;SDS011;10676;50.848;3.272;2023-07-24T08:28:31;4.28;;;2.35;;
21034;SDS011;10676;50.848;3.272;2023-07-24T08:30:57;2.38;;;1.95;;
21034;SDS011;10676;50.848;3.272;2023-07-24T08:33:23;2.70;;;2.10;;
21034;SDS011;10676;50.848;3.272;2023-07-24T08:36:03;4.22;;;2.08;;
21034;SDS011;10676;50.848;3.272;2023-07-24T08:38:32;4.00;;;2.15;;
21034;SDS011;10676;50.848;3.272;2023-07-24T08:41:00;4.75;;;2.30;;
21034;SDS011;10676;50.848;3.272;2023-07-24T08:43:30;3.17;;;2.10;;
21034;SDS011;10676;50.848;3.272;2023-07-24T08:45:57;4.22;;;2.00;;
21034;SDS011;10676;50.848;3.272;2023-07-24T08:48:23;2.63;;;1.75;;
21034;SDS011;10676;50.848;3.272;2023-07-24T08:50:50;2.53;;;1.55;;
21034;SDS011;10676;50.848;3.272;2023-07-24T08:53:18;4.53;;;1.77;;
21034;SDS011;10676;50.848;3.272;2023-07-24T08:55:46;3.50;;;2.20;;
21034;SDS011;10676;50.848;3.272;2023-07-24T08:58:16;4.78;;;2.30;;
21034;SDS011;10676;50.848;3.272;2023-07-24T09:00:42;2.60;;;2.05;;
21034;SDS011;10676;50.848;3.272;2023-07-24T09:03:07;2.72;;;2.00;;
21034;SDS011;10676;50.848;3.272;2023-07-24T09:05:33;3.05;;;2.35;;
21034;SDS011;10676;50.848;3.272;2023-07-24T09:07:59;3.17;;;2.38;;
21034;SDS011;10676;50.848;3.272;2023-07-24T09:10:25;3.00;;;2.20;;
21034;SDS011;10676;50.848;3.272;2023-07-24T09:12:51;2.75;;;2.20;;
21034;SDS011;10676;50.848;3.272;2023-07-24T09:15:17;2.38;;;2.00;;
21034;SDS011;10676;50.848;3.272;2023-07-24T09:17:52;2.72;;;2.00;;
21034;SDS011;10676;50.848;3.272;2023-07-24T09:20:19;4.55;;;1.73;;
21034;SDS011;10676;50.848;3.272;2023-07-24T09:22:52;4.10;;;1.80;;
21034;SDS011;10676;50.848;3.272;2023-07-24T09:25:29;4.25;;;2.17;;
21034;SDS011;10676;50.848;3.272;2023-07-24T09:27:58;4.10;;;2.08;;
21034;SDS011;10676;50.848;3.272;2023-07-24T09:30:24;3.97;;;2.40;;
21034;SDS011;10676;50.848;3.272;2023-07-24T09:32:53;3.03;;;2.10;;
21034;SDS011;10676;50.848;3.272;2023-07-24T09:35:19;3.42;;;2.40;;
21034;SDS011;10676;50.848;3.272;2023-07-24T09:37:51;4.28;;;2.42;;
21034;SDS011;10676;50.848;3.272;2023-07-24T09:40:26;2.85;;;2.38;;
21034;SDS011;10676;50.848;3.272;2023-07-24T09:42:51;3.80;;;2.60;;
21034;SDS011;10676;50.848;3.272;2023-07-24T09:45:17;4.07;;;2.08;;
21034;SDS011;10676;50.848;3.272;2023-07-24T09:47:43;5.00;;;2.35;;
21034;SDS011;10676;50.848;3.272;2023-07-24T09:50:09;5.90;;;2.22;;
21034;SDS011;10676;50.848;3.272;2023-07-24T09:52:35;4.78;;;2.40;;
21034;SDS011;10676;50.848;3.272;2023-07-24T09:55:21;3.47;;;2.05;;
21034;SDS011;10676;50.848;3.272;2023-07-24T09:57:50;3.80;;;2.40;;
21034;SDS011;10676;50.848;3.272;2023-07-24T10:00:19;4.25;;;2.28;;
21034;SDS011;10676;50.848;3.272;2023-07-24T10:02:46;4.82;;;2.50;;
21034;SDS011;10676;50.848;3.272;2023-07-24T10:05:13;7.15;;;2.80;;
21034;SDS011;10676;50.848;3.272;2023-07-24T10:07:39;4.70;;;3.00;;
21034;SDS011;10676;50.848;3.272;2023-07-24T10:10:06;4.90;;;3.00;;
21034;SDS011;10676;50.848;3.272;2023-07-24T10:12:32;4.95;;;3.20;;
21034;SDS011;10676;50.848;3.272;2023-07-24T10:14:59;5.63;;;3.55;;
21034;SDS011;10676;50.848;3.272;2023-07-24T10:20:05;5.60;;;2.92;;
21034;SDS011;10676;50.848;3.272;2023-07-24T10:22:33;7.60;;;3.10;;
21034;SDS011;10676;50.848;3.272;2023-07-24T10:24:59;4.32;;;3.08;;
21034;SDS011;10676;50.848;3.272;2023-07-24T10:27:24;4.45;;;2.80;;
21034;SDS011;10676;50.848;3.272;2023-07-24T10:29:58;3.72;;;3.10;;
21034;SDS011;10676;50.848;3.272;2023-07-24T10:32:27;6.05;;;2.97;;
21034;SDS011;10676;50.848;3.272;2023-07-24T10:35:06;4.90;;;2.60;;
21034;SDS011;10676;50.848;3.272;2023-07-24T10:37:35;4.30;;;2.90;;
21034;SDS011;10676;50.848;3.272;2023-07-24T10:40:02;3.75;;;2.70;;
21034;SDS011;10676;50.848;3.272;2023-07-24T10:42:33;3.13;;;2.80;;
21034;SDS011;10676;50.848;3.272;2023-07-24T10:45:06;4.55;;;2.90;;
21034;SDS011;10676;50.848;3.272;2023-07-24T10:47:32;4.93;;;2.50;;
21034;SDS011;10676;50.848;3.272;2023-07-24T10:49:58;7.50;;;2.83;;
21034;SDS011;10676;50.848;3.272;2023-07-24T10:52:29;5.63;;;2.60;;
21034;SDS011;10676;50.848;3.272;2023-07-24T10:54:59;4.78;;;2.67;;
21034;SDS011;10676;50.848;3.272;2023-07-24T10:57:28;4.45;;;2.40;;
21034;SDS011;10676;50.848;3.272;2023-07-24T10:59:55;4.85;;;3.00;;
21034;SDS011;10676;50.848;3.272;2023-07-24T11:02:20;4.40;;;3.30;;
21034;SDS011;10676;50.848;3.272;2023-07-24T11:04:46;4.05;;;2.72;;
21034;SDS011;10676;50.848;3.272;2023-07-24T11:07:13;2.78;;;2.50;;
21034;SDS011;10676;50.848;3.272;2023-07-24T11:09:39;6.65;;;2.70;;
21034;SDS011;10676;50.848;3.272;2023-07-24T11:12:23;7.85;;;2.75;;
21034;SDS011;10676;50.848;3.272;2023-07-24T11:14:52;4.85;;;2.95;;
21034;SDS011;10676;50.848;3.272;2023-07-24T11:17:32;5.43;;;2.95;;
21034;SDS011;10676;50.848;3.272;2023-07-24T11:20:09;4.80;;;2.95;;
21034;SDS011;10676;50.848;3.272;2023-07-24T11:22:40;4.43;;;3.00;;
21034;SDS011;10676;50.848;3.272;2023-07-24T11:25:08;4.68;;;2.45;;
21034;SDS011;10676;50.848;3.272;2023-07-24T11:27:39;4.15;;;2.10;;
21034;SDS011;10676;50.848;3.272;2023-07-24T11:30:07;7.50;;;2.33;;
21034;SDS011;10676;50.848;3.272;2023-07-24T11:32:33;3.55;;;1.90;;
21034;SDS011;10676;50.848;3.272;2023-07-24T11:34:59;3.88;;;2.13;;
21034;SDS011;10676;50.848;3.272;2023-07-24T11:37:25;4.40;;;1.92;;
21034;SDS011;10676;50.848;3.272;2023-07-24T11:39:54;3.08;;;2.28;;
21034;SDS011;10676;50.848;3.272;2023-07-24T11:42:25;4.95;;;2.33;;
21034;SDS011;10676;50.848;3.272;2023-07-24T11:44:52;3.33;;;2.38;;
21034;SDS011;10676;50.848;3.272;2023-07-24T11:47:18;5.22;;;2.20;;
21034;SDS011;10676;50.848;3.272;2023-07-24T11:49:44;5.03;;;2.67;;
21034;SDS011;10676;50.848;3.272;2023-07-24T11:52:13;3.33;;;2.15;;
21034;SDS011;10676;50.848;3.272;2023-07-24T11:54:39;3.97;;;1.90;;
21034;SDS011;10676;50.848;3.272;2023-07-24T11:57:17;2.13;;;1.80;;
21034;SDS011;10676;50.848;3.272;2023-07-24T11:59:43;3.10;;;1.98;;
21034;SDS011;10676;50.848;3.272;2023-07-24T12:02:10;3.25;;;2.00;;
21034;SDS011;10676;50.848;3.272;2023-07-24T12:04:36;4.97;;;2.10;;
21034;SDS011;10676;50.848;3.272;2023-07-24T12:07:07;3.42;;;2.00;;
21034;SDS011;10676;50.848;3.272;2023-07-24T12:09:33;4.05;;;2.38;;
21034;SDS011;10676;50.848;3.272;2023-07-24T12:11:59;3.95;;;2.00;;
21034;SDS011;10676;50.848;3.272;2023-07-24T12:14:28;4.80;;;2.30;;
21034;SDS011;10676;50.848;3.272;2023-07-24T12:17:03;4.00;;;1.90;;
21034;SDS011;10676;50.848;3.272;2023-07-24T12:19:31;3.60;;;1.95;;
21034;SDS011;10676;50.848;3.272;2023-07-24T12:21:56;3.92;;;2.30;;
21034;SDS011;10676;50.848;3.272;2023-07-24T12:24:22;5.05;;;2.00;;
21034;SDS011;10676;50.848;3.272;2023-07-24T12:26:49;3.38;;;1.90;;
21034;SDS011;10676;50.848;3.272;2023-07-24T12:29:16;5.82;;;2.00;;
21034;SDS011;10676;50.848;3.272;2023-07-24T12:31:42;3.42;;;1.95;;
21034;SDS011;10676;50.848;3.272;2023-07-24T12:34:08;3.38;;;2.20;;
21034;SDS011;10676;50.848;3.272;2023-07-24T12:36:33;3.40;;;2.10;;
21034;SDS011;10676;50.848;3.272;2023-07-24T12:38:59;2.80;;;1.75;;
21034;SDS011;10676;50.848;3.272;2023-07-24T12:41:25;3.58;;;1.92;;
21034;SDS011;10676;50.848;3.272;2023-07-24T12:43:51;2.95;;;1.63;;
21034;SDS011;10676;50.848;3.272;2023-07-24T12:46:19;3.63;;;1.65;;
21034;SDS011;10676;50.848;3.272;2023-07-24T12:48:45;2.30;;;1.58;;
21034;SDS011;10676;50.848;3.272;2023-07-24T12:51:11;2.55;;;1.70;;
21034;SDS011;10676;50.848;3.272;2023-07-24T12:53:36;2.63;;;1.70;;
21034;SDS011;10676;50.848;3.272;2023-07-24T12:56:02;3.45;;;1.90;;
21034;SDS011;10676;50.848;3.272;2023-07-24T12:58:28;2.83;;;1.27;;
21034;SDS011;10676;50.848;3.272;2023-07-24T13:00:53;3.47;;;1.80;;
21034;SDS011;10676;50.848;3.272;2023-07-24T13:03:19;2.17;;;1.60;;
21034;SDS011;10676;50.848;3.272;2023-07-24T13:05:46;2.58;;;1.40;;
21034;SDS011;10676;50.848;3.272;2023-07-24T13:08:13;3.50;;;1.67;;
21034;SDS011;10676;50.848;3.272;2023-07-24T13:10:38;1.20;;;1.10;;
21034;SDS011;10676;50.848;3.272;2023-07-24T13:13:04;2.53;;;1.40;;
21034;SDS011;10676;50.848;3.272;2023-07-24T13:15:29;2.45;;;1.40;;
21034;SDS011;10676;50.848;3.272;2023-07-24T13:17:57;3.80;;;1.30;;
21034;SDS011;10676;50.848;3.272;2023-07-24T13:20:22;2.70;;;1.50;;
21034;SDS011;10676;50.848;3.272;2023-07-24T13:22:49;2.15;;;1.30;;
21034;SDS011;10676;50.848;3.272;2023-07-24T13:25:15;1.58;;;1.40;;
21034;SDS011;10676;50.848;3.272;2023-07-24T13:27:40;2.25;;;1.75;;
21034;SDS011;10676;50.848;3.272;2023-07-24T13:30:06;2.38;;;1.58;;
21034;SDS011;10676;50.848;3.272;2023-07-24T13:32:32;4.18;;;1.70;;
21034;SDS011;10676;50.848;3.272;2023-07-24T13:34:59;2.35;;;1.67;;
21034;SDS011;10676;50.848;3.272;2023-07-24T13:37:25;2.10;;;1.73;;
21034;SDS011;10676;50.848;3.272;2023-07-24T13:39:51;2.83;;;2.00;;
21034;SDS011;10676;50.848;3.272;2023-07-24T13:42:17;3.65;;;1.90;;
21034;SDS011;10676;50.848;3.272;2023-07-24T13:44:42;2.65;;;2.00;;
21034;SDS011;10676;50.848;3.272;2023-07-24T13:47:08;3.38;;;1.70;;
21034;SDS011;10676;50.848;3.272;2023-07-24T13:49:34;3.28;;;1.58;;
21034;SDS011;10676;50.848;3.272;2023-07-24T13:51:59;1.90;;;1.58;;
21034;SDS011;10676;50.848;3.272;2023-07-24T13:54:25;3.45;;;1.50;;
21034;SDS011;10676;50.848;3.272;2023-07-24T13:56:51;2.17;;;1.50;;
21034;SDS011;10676;50.848;3.272;2023-07-24T13:59:17;2.75;;;1.50;;
21034;SDS011;10676;50.848;3.272;2023-07-24T14:01:43;1.63;;;1.20;;
21034;SDS011;10676;50.848;3.272;2023-07-24T14:04:09;2.55;;;1.17;;
21034;SDS011;10676;50.848;3.272;2023-07-24T14:06:37;2.45;;;1.27;;
21034;SDS011;10676;50.848;3.272;2023-07-24T14:09:03;4.60;;;1.42;;
21034;SDS011;10676;50.848;3.272;2023-07-24T14:11:28;1.83;;;1.40;;
21034;SDS011;10676;50.848;3.272;2023-07-24T14:13:54;2.00;;;1.65;;
21034;SDS011;10676;50.848;3.272;2023-07-24T14:16:19;2.80;;;1.52;;
21034;SDS011;10676;50.848;3.272;2023-07-24T14:18:45;2.88;;;1.20;;
21034;SDS011;10676;50.848;3.272;2023-07-24T14:21:11;2.95;;;1.33;;
21034;SDS011;10676;50.848;3.272;2023-07-24T14:23:37;2.90;;;1.58;;
21034;SDS011;10676;50.848;3.272;2023-07-24T14:26:03;3.45;;;1.60;;
21034;SDS011;10676;50.848;3.272;2023-07-24T14:28:29;3.78;;;2.00;;
21034;SDS011;10676;50.848;3.272;2023-07-24T14:30:54;4.18;;;2.60;;
21034;SDS011;10676;50.848;3.272;2023-07-24T14:33:20;5.93;;;3.00;;
21034;SDS011;10676;50.848;3.272;2023-07-24T14:35:47;11.40;;;4.00;;